createdAt,value
2019-03-20T00:02:01.408Z,15.87
2019-03-20T00:04:29.144Z,18.73
2019-03-20T00:06:56.926Z,16.80
2019-03-20T00:09:24.745Z,15.00
2019-03-20T00:11:52.445Z,16.43
2019-03-20T00:14:20.170Z,15.60
2019-03-20T00:16:47.889Z,15.83
2019-03-20T00:19:15.747Z,16.30
2019-03-20T00:21:43.514Z,17.97
2019-03-20T00:24:11.222Z,14.53
2019-03-20T00:26:39.084Z,14.93
2019-03-20T00:29:06.801Z,16.20
2019-03-20T00:31:34.534Z,14.13
2019-03-20T00:34:02.254Z,14.17
2019-03-20T00:36:29.990Z,14.63
2019-03-20T00:38:57.775Z,14.63
2019-03-20T00:41:25.549Z,16.03
2019-03-20T00:43:53.246Z,19.47
2019-03-20T00:46:20.955Z,14.07
2019-03-20T00:48:48.671Z,14.77
2019-03-20T00:51:16.415Z,12.97
2019-03-20T00:53:44.186Z,14.90
2019-03-20T00:56:11.945Z,14.47
2019-03-20T01:14:00.948Z,13.87
2019-03-20T01:16:28.811Z,12.03
2019-03-20T01:18:56.570Z,15.80
2019-03-20T01:21:24.305Z,17.23
2019-03-20T01:23:52.097Z,13.70
2019-03-20T01:26:19.865Z,15.53
2019-03-20T01:28:47.632Z,15.53
2019-03-20T01:31:15.467Z,15.93
2019-03-20T01:33:43.264Z,14.63
2019-03-20T01:36:10.964Z,17.47
2019-03-20T01:38:38.814Z,17.40
2019-03-20T01:41:06.566Z,13.03
2019-03-20T01:43:34.345Z,14.47
2019-03-20T01:46:02.101Z,14.03
2019-03-20T01:48:29.846Z,15.03
2019-03-20T01:50:57.546Z,15.13
2019-03-20T01:53:25.274Z,13.33
2019-03-20T01:55:53.110Z,14.07
2019-03-20T01:58:20.954Z,15.73
2019-03-20T02:00:48.666Z,17.10
2019-03-20T02:03:16.500Z,14.07
2019-03-20T02:05:44.229Z,13.40
2019-03-20T02:08:12.118Z,17.37
2019-03-20T02:10:39.854Z,16.63
2019-03-20T02:13:07.571Z,14.87
2019-03-20T02:15:39.368Z,18.23
2019-03-20T02:18:04.760Z,14.70
2019-03-20T02:20:32.576Z,19.37
2019-03-20T02:23:00.325Z,20.80
2019-03-20T02:25:28.103Z,20.47
2019-03-20T02:27:55.807Z,18.43
2019-03-20T02:30:23.521Z,14.37
2019-03-20T02:32:51.245Z,17.13
2019-03-20T02:35:19.064Z,16.40
2019-03-20T02:37:46.834Z,15.00
2019-03-20T02:40:14.633Z,17.50
2019-03-20T02:42:42.379Z,18.97
2019-03-20T02:45:10.147Z,16.87
2019-03-20T02:47:37.945Z,16.47
2019-03-20T02:50:05.754Z,15.80
2019-03-20T02:52:33.474Z,17.33
2019-03-20T02:55:01.230Z,18.43
2019-03-20T02:57:28.983Z,19.50
2019-03-20T02:59:56.843Z,19.27
2019-03-20T03:02:24.570Z,18.87
2019-03-20T03:04:52.365Z,17.40
2019-03-20T03:07:20.125Z,17.63
2019-03-20T03:09:48.147Z,21.80
2019-03-20T03:12:15.873Z,21.70
2019-03-20T03:14:43.636Z,20.43
2019-03-20T03:17:11.368Z,22.43
2019-03-20T03:19:39.289Z,19.77
2019-03-20T03:22:07.007Z,22.30
2019-03-20T03:24:34.737Z,17.03
2019-03-20T03:27:02.460Z,21.57
2019-03-20T03:29:30.233Z,22.60
2019-03-20T03:31:57.947Z,22.90
2019-03-20T03:34:25.665Z,23.07
2019-03-20T03:36:53.396Z,21.17
2019-03-20T03:39:21.191Z,21.67
2019-03-20T03:41:48.924Z,22.07
2019-03-20T03:44:16.728Z,22.33
2019-03-20T03:46:44.517Z,18.83
2019-03-20T03:49:12.365Z,22.67
2019-03-20T03:51:40.138Z,23.93
2019-03-20T03:54:07.842Z,26.77
2019-03-20T03:56:35.669Z,24.57
2019-03-20T03:59:03.415Z,24.17
2019-03-20T04:01:31.285Z,23.37
2019-03-20T04:03:59.088Z,26.87
2019-03-20T04:06:35.530Z,21.97
2019-03-20T04:08:56.460Z,23.70
2019-03-20T04:11:24.232Z,24.03
2019-03-20T04:13:51.961Z,27.47
2019-03-20T04:16:19.751Z,23.10
2019-03-20T04:18:47.568Z,21.93
2019-03-20T04:21:15.363Z,24.83
2019-03-20T04:23:43.075Z,25.27
2019-03-20T04:26:10.810Z,24.83
2019-03-20T04:28:38.576Z,26.63
2019-03-20T04:31:06.316Z,23.23
2019-03-20T04:33:34.106Z,25.10
2019-03-20T04:36:01.888Z,25.50
2019-03-20T04:38:29.602Z,25.67
2019-03-20T04:40:57.335Z,23.27
2019-03-20T04:43:25.169Z,27.07
2019-03-20T04:45:52.972Z,30.40
2019-03-20T04:48:20.808Z,28.30
2019-03-20T04:50:48.573Z,29.27
2019-03-20T04:53:16.342Z,24.00
2019-03-20T04:55:44.230Z,25.67
2019-03-20T04:58:12.097Z,27.70
2019-03-20T05:00:39.814Z,32.43
2019-03-20T05:03:07.654Z,25.77
2019-03-20T05:05:35.473Z,24.20
2019-03-20T05:08:03.249Z,28.17
2019-03-20T05:10:30.962Z,31.07
2019-03-20T05:12:58.787Z,25.37
2019-03-20T05:15:26.541Z,29.27
2019-03-20T05:17:54.316Z,30.17
2019-03-20T05:20:22.075Z,27.67
2019-03-20T05:22:49.842Z,31.93
2019-03-20T05:25:17.735Z,27.13
2019-03-20T05:27:45.617Z,27.03
2019-03-20T05:30:13.346Z,29.90
2019-03-20T05:32:41.043Z,29.33
2019-03-20T05:35:08.917Z,28.90
2019-03-20T05:37:36.657Z,28.03
2019-03-20T05:40:04.660Z,32.57
2019-03-20T05:42:32.481Z,29.03
2019-03-20T05:45:00.383Z,31.77
2019-03-20T05:47:28.435Z,32.53
2019-03-20T05:49:56.199Z,32.80
2019-03-20T05:52:24.028Z,31.43
2019-03-20T05:54:52.049Z,32.60
2019-03-20T05:57:19.803Z,33.73
2019-03-20T05:59:47.535Z,32.53
2019-03-20T06:02:15.334Z,30.33
2019-03-20T06:04:43.141Z,28.93
2019-03-20T06:07:21.062Z,32.30
2019-03-20T06:09:40.447Z,34.17
2019-03-20T06:12:08.268Z,34.77
2019-03-20T06:14:36.022Z,30.47
2019-03-20T06:17:03.784Z,29.23
2019-03-20T06:19:31.538Z,32.17
2019-03-20T06:21:59.311Z,32.20
2019-03-20T06:24:27.069Z,32.90
2019-03-20T06:26:54.863Z,32.87
2019-03-20T06:29:22.598Z,30.07
2019-03-20T06:31:50.612Z,30.13
2019-03-20T06:34:18.345Z,31.10
2019-03-20T06:36:46.153Z,30.87
2019-03-20T06:39:13.895Z,40.40
2019-03-20T06:41:41.760Z,32.20
2019-03-20T06:44:09.737Z,32.80
2019-03-20T06:46:37.567Z,31.33
2019-03-20T06:49:07.758Z,32.90
2019-03-20T06:51:34.904Z,28.97
2019-03-20T06:54:02.731Z,31.33
2019-03-20T06:56:30.539Z,31.47
2019-03-20T06:58:58.272Z,31.67
2019-03-20T07:01:26.089Z,29.27
2019-03-20T07:03:53.840Z,29.83
2019-03-20T07:06:21.677Z,33.70
2019-03-20T07:08:49.470Z,35.17
2019-03-20T07:11:18.433Z,26.97
2019-03-20T07:13:46.149Z,32.13
2019-03-20T07:16:13.960Z,32.90
2019-03-20T07:18:41.845Z,31.63
2019-03-20T07:21:09.625Z,30.30
2019-03-20T07:23:37.364Z,28.90
2019-03-20T07:26:05.241Z,32.30
2019-03-20T07:28:32.940Z,28.27
2019-03-20T07:31:01.120Z,27.97
2019-03-20T07:33:28.820Z,28.07
2019-03-20T07:35:59.671Z,31.13
2019-03-20T07:38:27.474Z,26.00
2019-03-20T07:40:55.244Z,23.83
2019-03-20T07:43:23.072Z,27.40
2019-03-20T07:45:50.852Z,28.70
2019-03-20T07:48:22.288Z,27.30
2019-03-20T07:50:48.128Z,25.63
2019-03-20T07:53:15.959Z,27.37
2019-03-20T07:55:43.755Z,42.00
2019-03-20T07:58:11.564Z,28.83
2019-03-20T08:00:39.283Z,28.53
2019-03-20T08:03:07.086Z,27.40
2019-03-20T08:05:35.486Z,24.00
2019-03-20T08:08:07.439Z,21.90
2019-03-20T08:10:33.395Z,24.20
2019-03-20T08:13:01.190Z,28.17
2019-03-20T08:15:28.967Z,28.27
2019-03-20T08:17:56.738Z,26.53
2019-03-20T08:20:24.684Z,25.83
2019-03-20T08:22:52.498Z,27.20
2019-03-20T08:25:20.210Z,28.07
2019-03-20T08:27:48.187Z,29.80
2019-03-20T08:30:16.003Z,28.80
2019-03-20T08:32:43.771Z,23.83
2019-03-20T08:35:11.715Z,24.97
2019-03-20T08:37:39.514Z,22.90
2019-03-20T08:40:07.280Z,23.93
2019-03-20T08:45:20.926Z,25.77
2019-03-20T08:50:34.377Z,24.33
2019-03-20T08:53:02.105Z,31.43
2019-03-20T08:55:29.934Z,28.97
2019-03-20T08:57:57.976Z,37.37
2019-03-20T09:00:25.827Z,31.17
2019-03-20T09:02:53.603Z,23.50
2019-03-20T09:05:21.673Z,27.63
2019-03-20T09:07:49.436Z,23.77
2019-03-20T09:10:17.203Z,30.60
2019-03-20T09:12:50.809Z,32.03
2019-03-20T09:15:18.541Z,24.70
2019-03-20T09:17:46.525Z,24.37
2019-03-20T09:20:14.511Z,22.23
2019-03-20T09:22:42.377Z,25.77
2019-03-20T09:25:10.133Z,28.60
2019-03-20T09:27:37.948Z,24.10
2019-03-20T09:30:05.894Z,25.73
2019-03-20T09:32:33.681Z,25.13
2019-03-20T09:35:01.537Z,24.57
2019-03-20T09:37:29.294Z,23.57
2019-03-20T09:39:57.160Z,26.47
2019-03-20T09:42:24.839Z,36.63
2019-03-20T09:44:52.396Z,21.87
2019-03-20T09:47:19.820Z,24.35
2019-03-20T09:49:47.620Z,21.30
2019-03-20T09:52:15.509Z,20.23
2019-03-20T09:54:43.369Z,20.90
2019-03-20T09:57:11.437Z,30.47
2019-03-20T09:59:39.742Z,19.83
2019-03-20T10:02:07.476Z,25.13
2019-03-20T10:04:35.325Z,21.23
2019-03-20T10:07:03.069Z,21.57
2019-03-20T10:09:30.930Z,17.80
2019-03-20T10:11:58.854Z,18.43
2019-03-20T10:14:26.727Z,25.27
2019-03-20T10:16:54.475Z,20.10
2019-03-20T10:19:22.383Z,25.03
2019-03-20T10:21:50.334Z,21.87
2019-03-20T10:24:18.205Z,18.47
2019-03-20T10:26:46.569Z,22.23
2019-03-20T10:29:14.344Z,22.55
2019-03-20T10:31:41.892Z,20.45
2019-03-20T10:34:09.457Z,18.17
2019-03-20T10:36:37.002Z,20.77
2019-03-20T10:39:06.663Z,21.97
2019-03-20T10:41:33.803Z,21.93
2019-03-20T10:44:01.319Z,19.37
2019-03-20T10:46:28.720Z,18.00
2019-03-20T10:48:56.549Z,19.77
2019-03-20T10:51:24.118Z,15.20
2019-03-20T10:53:51.586Z,17.57
2019-03-20T10:56:19.160Z,18.30
2019-03-20T10:58:46.696Z,13.65
2019-03-20T11:01:14.268Z,14.70
2019-03-20T11:03:41.761Z,16.77
2019-03-20T11:06:09.293Z,16.50
2019-03-20T11:08:36.873Z,15.88
2019-03-20T11:11:04.342Z,17.35
2019-03-20T11:13:31.868Z,18.25
2019-03-20T11:15:59.300Z,20.75
2019-03-20T11:18:26.781Z,14.85
2019-03-20T11:20:54.357Z,16.17
2019-03-20T11:23:21.809Z,18.85
2019-03-20T11:25:49.372Z,16.90
2019-03-20T11:28:16.843Z,17.75
2019-03-20T11:30:44.517Z,15.83
2019-03-20T11:33:12.087Z,17.82
2019-03-20T11:35:42.353Z,16.65
2019-03-20T11:38:08.834Z,18.45
2019-03-20T11:40:36.357Z,14.83
2019-03-20T11:43:04.284Z,18.37
2019-03-20T11:45:32.219Z,13.57
2019-03-20T11:48:00.115Z,15.23
2019-03-20T11:50:27.962Z,29.83
2019-03-20T11:52:55.827Z,14.63
2019-03-20T11:55:23.574Z,23.10
2019-03-20T11:57:51.600Z,16.30
2019-03-20T12:00:19.299Z,13.43
2019-03-20T12:02:47.132Z,23.80
2019-03-20T12:05:14.963Z,12.93
2019-03-20T12:07:42.639Z,15.65
2019-03-20T12:10:10.371Z,15.05
2019-03-20T12:12:38.237Z,17.07
2019-03-20T12:15:06.036Z,28.40
2019-03-20T12:17:33.642Z,15.53
2019-03-20T12:20:01.366Z,20.02
2019-03-20T12:22:28.885Z,16.40
2019-03-20T12:24:56.405Z,22.10
2019-03-20T12:27:23.877Z,14.53
2019-03-20T12:29:51.393Z,16.82
2019-03-20T12:32:18.834Z,14.43
2019-03-20T12:34:46.457Z,11.20
2019-03-20T12:37:13.999Z,12.63
2019-03-20T12:39:52.606Z,18.37
2019-03-20T12:42:10.849Z,24.75
2019-03-20T12:44:38.432Z,13.62
2019-03-20T12:47:05.988Z,18.32
2019-03-20T12:49:33.633Z,16.35
2019-03-20T12:52:01.061Z,15.00
2019-03-20T12:54:28.550Z,19.82
2019-03-20T12:56:56.106Z,12.30
2019-03-20T12:59:23.706Z,16.45
2019-03-20T13:01:51.246Z,16.57
2019-03-20T13:04:18.848Z,15.55
2019-03-20T13:06:46.681Z,13.27
2019-03-20T13:09:14.337Z,14.45
2019-03-20T13:11:41.924Z,19.52
2019-03-20T13:14:09.459Z,15.05
2019-03-20T13:16:37.223Z,21.33
2019-03-20T13:19:04.766Z,14.38
2019-03-20T13:21:32.671Z,15.23
2019-03-20T13:24:00.261Z,12.95
2019-03-20T13:26:27.703Z,13.58
2019-03-20T13:28:55.339Z,15.60
2019-03-20T13:31:22.920Z,19.48
2019-03-20T13:33:50.563Z,16.95
2019-03-20T13:36:18.037Z,16.17
2019-03-20T13:38:45.591Z,14.53
2019-03-20T13:41:13.198Z,18.48
2019-03-20T13:43:40.716Z,17.65
2019-03-20T13:46:08.257Z,14.90
2019-03-20T13:48:35.811Z,15.83
2019-03-20T13:51:03.522Z,19.87
2019-03-20T13:53:31.363Z,20.30
2019-03-20T13:55:59.226Z,16.90
2019-03-20T13:58:27.025Z,20.40
2019-03-20T14:00:54.869Z,20.73
2019-03-20T14:03:22.641Z,21.23
2019-03-20T14:05:50.621Z,14.57
2019-03-20T14:08:18.504Z,15.80
2019-03-20T14:10:50.369Z,16.37
2019-03-20T14:13:15.860Z,15.63
2019-03-20T14:15:43.717Z,14.47
2019-03-20T14:18:11.456Z,20.50
2019-03-20T14:20:39.195Z,26.50
2019-03-20T14:23:07.018Z,14.80
2019-03-20T14:25:34.949Z,21.63
2019-03-20T14:28:02.739Z,16.53
2019-03-20T14:30:30.659Z,17.20
2019-03-20T14:33:02.699Z,18.93
2019-03-20T14:35:30.621Z,25.40
2019-03-20T14:38:00.625Z,16.27
2019-03-20T14:40:37.465Z,19.60
2019-03-20T14:43:00.817Z,21.68
2019-03-20T14:45:28.356Z,20.35
2019-03-20T14:47:56.170Z,19.40
2019-03-20T14:50:24.018Z,18.13
2019-03-20T14:52:51.831Z,22.13
2019-03-20T14:55:19.598Z,17.27
2019-03-20T14:57:47.505Z,18.20
2019-03-20T15:00:20.415Z,17.07
2019-03-20T15:02:48.346Z,22.67
2019-03-20T15:05:16.057Z,20.17
2019-03-20T15:07:44.178Z,17.30
2019-03-20T15:10:12.000Z,12.23
2019-03-20T15:12:39.965Z,15.37
2019-03-20T15:15:07.655Z,18.48
2019-03-20T15:17:35.292Z,28.32
2019-03-20T15:20:02.728Z,22.15
2019-03-20T15:22:30.523Z,17.83
2019-03-20T15:24:58.695Z,18.83
2019-03-20T15:27:26.560Z,15.17
2019-03-20T15:29:54.467Z,20.57
2019-03-20T15:32:22.286Z,24.83
2019-03-20T15:34:50.334Z,23.57
2019-03-20T15:37:18.163Z,18.17
2019-03-20T15:39:45.991Z,17.50
2019-03-20T15:42:13.799Z,21.13
2019-03-20T15:44:41.625Z,19.03
2019-03-20T15:47:09.408Z,19.33
2019-03-20T15:49:37.190Z,18.07
2019-03-20T15:52:04.939Z,19.43
2019-03-20T15:54:32.692Z,16.43
2019-03-20T15:57:00.499Z,16.20
2019-03-20T15:59:28.347Z,18.80
2019-03-20T16:01:56.004Z,20.32
2019-03-20T16:04:23.565Z,23.35
2019-03-20T16:06:51.008Z,22.52
2019-03-20T16:09:18.605Z,22.77
2019-03-20T16:11:46.192Z,27.70
2019-03-20T16:14:13.929Z,21.52
2019-03-20T16:16:41.481Z,24.60
2019-03-20T16:19:09.052Z,22.30
2019-03-20T16:21:36.602Z,20.72
2019-03-20T16:24:04.203Z,18.90
2019-03-20T16:26:31.711Z,18.67
2019-03-20T16:28:59.167Z,22.00
2019-03-20T16:31:26.754Z,24.18
2019-03-20T16:33:54.307Z,20.52
2019-03-20T16:36:22.181Z,21.07
2019-03-20T16:38:49.734Z,22.50
2019-03-20T16:41:17.323Z,21.87
2019-03-20T16:43:45.253Z,27.48
2019-03-20T16:46:12.779Z,28.10
2019-03-20T16:48:40.277Z,26.30
2019-03-20T16:51:07.750Z,28.75
2019-03-20T16:53:35.545Z,27.20
2019-03-20T16:56:03.905Z,28.40
2019-03-20T16:58:31.761Z,27.77
2019-03-20T17:00:59.581Z,25.07
2019-03-20T17:03:27.407Z,34.07
2019-03-20T17:05:55.327Z,27.30
2019-03-20T17:08:23.242Z,33.90
2019-03-20T17:10:50.958Z,26.97
2019-03-20T17:13:18.693Z,34.07
2019-03-20T17:15:46.531Z,33.97
2019-03-20T17:18:14.398Z,26.20
2019-03-20T17:20:42.277Z,40.80
2019-03-20T17:23:10.130Z,37.10
2019-03-20T17:25:38.058Z,38.50
2019-03-20T17:28:05.884Z,33.27
2019-03-20T17:30:33.748Z,26.53
2019-03-20T17:33:01.489Z,29.97
2019-03-20T17:35:29.387Z,33.70
2019-03-20T17:37:57.256Z,33.27
2019-03-20T17:40:25.001Z,34.77
2019-03-20T17:42:53.243Z,37.40
2019-03-20T17:45:21.168Z,37.00
2019-03-20T17:47:49.386Z,33.47
2019-03-20T17:50:17.321Z,33.67
2019-03-20T17:52:45.357Z,30.40
2019-03-20T17:55:13.256Z,33.03
2019-03-20T17:57:41.149Z,34.10
2019-03-20T18:00:08.974Z,38.20
2019-03-20T18:02:36.683Z,34.60
2019-03-20T18:05:04.538Z,37.43
2019-03-20T18:07:32.253Z,36.83
2019-03-20T18:10:00.306Z,44.47
2019-03-20T18:12:28.125Z,42.57
2019-03-20T18:14:55.967Z,41.33
2019-03-20T18:17:23.902Z,39.53
2019-03-20T18:19:52.374Z,99.17
2019-03-20T18:22:20.215Z,84.70
2019-03-20T18:24:48.016Z,69.73
2019-03-20T18:27:15.862Z,61.80
2019-03-20T18:29:43.607Z,49.23
2019-03-20T18:32:11.415Z,40.00
2019-03-20T18:34:39.278Z,36.80
2019-03-20T18:37:07.037Z,41.27
2019-03-20T18:39:34.915Z,35.50
2019-03-20T18:42:04.372Z,73.87
2019-03-20T18:44:32.188Z,31.70
2019-03-20T18:47:00.167Z,48.60
2019-03-20T18:49:27.913Z,38.77
2019-03-20T18:51:55.819Z,39.63
2019-03-20T18:54:23.655Z,30.70
2019-03-20T18:56:51.459Z,29.70
2019-03-20T18:59:19.375Z,35.63
2019-03-20T19:01:47.255Z,33.23
2019-03-20T19:04:15.128Z,37.37
2019-03-20T19:06:42.968Z,32.47
2019-03-20T19:09:12.111Z,31.70
2019-03-20T19:11:44.355Z,35.53
2019-03-20T19:14:20.609Z,35.50
2019-03-20T19:17:00.040Z,36.13
2019-03-20T19:19:31.642Z,41.67
2019-03-20T19:21:59.388Z,37.45
2019-03-20T19:24:26.810Z,40.70
2019-03-20T19:26:55.406Z,45.77
2019-03-20T19:29:31.357Z,46.60
2019-03-20T19:32:03.865Z,38.97
2019-03-20T19:34:35.699Z,43.33
2019-03-20T19:37:04.516Z,40.80
2019-03-20T19:39:34.461Z,42.40
2019-03-20T19:42:02.006Z,41.63
2019-03-20T19:44:29.543Z,35.10
2019-03-20T19:46:57.101Z,37.23
2019-03-20T19:49:24.560Z,39.80
2019-03-20T19:51:52.018Z,48.58
2019-03-20T19:54:19.786Z,55.03
2019-03-20T19:56:47.592Z,57.27
2019-03-20T19:59:15.704Z,61.47
2019-03-20T20:01:43.537Z,69.40
2019-03-20T20:04:11.407Z,91.20
2019-03-20T20:06:39.604Z,107.20
2019-03-20T20:09:07.384Z,114.30
2019-03-20T20:11:35.396Z,108.50
2019-03-20T20:14:03.208Z,102.77
2019-03-20T20:16:31.027Z,81.27
2019-03-20T20:18:58.754Z,72.43
2019-03-20T20:21:26.560Z,62.00
2019-03-20T20:23:55.738Z,57.20
2019-03-20T20:26:23.639Z,57.53
2019-03-20T20:28:51.384Z,60.40
2019-03-20T20:31:19.108Z,74.83
2019-03-20T20:33:46.928Z,81.10
2019-03-20T20:36:14.829Z,70.33
2019-03-20T20:38:42.677Z,56.90
2019-03-20T20:41:10.560Z,69.20
2019-03-20T20:43:39.850Z,66.30
2019-03-20T20:46:07.990Z,58.57
2019-03-20T20:48:35.803Z,52.53
2019-03-20T20:51:03.858Z,50.37
2019-03-20T20:53:31.600Z,49.07
2019-03-20T20:55:59.398Z,41.60
2019-03-20T20:58:27.163Z,35.10
2019-03-20T21:00:54.964Z,36.60
2019-03-20T21:03:22.795Z,38.40
2019-03-20T21:05:50.607Z,41.20
2019-03-20T21:08:18.432Z,40.27
2019-03-20T21:10:46.283Z,37.50
2019-03-20T21:13:14.413Z,36.77
2019-03-20T21:15:45.617Z,39.43
2019-03-20T21:18:15.974Z,51.10
2019-03-20T21:20:47.015Z,39.60
2019-03-20T21:23:18.358Z,39.63
2019-03-20T21:25:46.690Z,41.25
2019-03-20T21:28:18.106Z,38.10
2019-03-20T21:30:47.005Z,56.98
2019-03-20T21:33:15.056Z,55.75
2019-03-20T21:35:42.528Z,58.95
2019-03-20T21:38:11.496Z,63.50
2019-03-20T21:40:39.286Z,57.50
2019-03-20T21:43:07.579Z,54.35
2019-03-20T21:45:39.348Z,54.67
2019-03-20T21:48:07.417Z,57.15
2019-03-20T21:50:37.980Z,57.03
2019-03-20T21:53:05.480Z,50.58
2019-03-20T21:55:32.986Z,60.17
2019-03-20T21:58:00.530Z,45.45
2019-03-20T22:00:28.079Z,43.95
2019-03-20T22:02:55.629Z,39.20
2019-03-20T22:05:27.323Z,44.30
2019-03-20T22:07:56.263Z,58.70
2019-03-20T22:10:23.831Z,46.68
2019-03-20T22:12:51.380Z,55.12
2019-03-20T22:15:18.969Z,42.78
2019-03-20T22:17:50.801Z,50.33
2019-03-20T22:20:15.601Z,45.88
2019-03-20T22:22:43.959Z,39.55
2019-03-20T22:25:11.817Z,36.03
2019-03-20T22:27:39.604Z,36.03
2019-03-20T22:30:07.383Z,41.60
2019-03-20T22:32:35.275Z,39.27
2019-03-20T22:35:03.700Z,33.47
2019-03-20T22:37:34.781Z,32.07
2019-03-20T22:40:02.413Z,33.63
2019-03-20T22:42:34.479Z,33.43
2019-03-20T22:45:04.073Z,47.43
2019-03-20T22:47:33.697Z,38.47
2019-03-20T22:50:01.488Z,35.53
2019-03-20T22:52:29.400Z,35.97
2019-03-20T22:54:57.413Z,33.47
2019-03-20T22:57:25.199Z,37.57
2019-03-20T22:59:52.980Z,41.43
2019-03-20T23:02:20.818Z,46.90
2019-03-20T23:04:48.614Z,41.10
2019-03-20T23:07:16.325Z,43.60
2019-03-20T23:09:44.135Z,36.77
2019-03-20T23:12:11.887Z,41.70
2019-03-20T23:14:39.599Z,40.10
2019-03-20T23:17:07.585Z,37.77
2019-03-20T23:19:35.405Z,37.67
2019-03-20T23:22:03.201Z,44.57
2019-03-20T23:24:30.935Z,38.47
2019-03-20T23:26:58.664Z,36.63
2019-03-20T23:29:26.388Z,39.57
2019-03-20T23:31:54.120Z,38.00
2019-03-20T23:34:21.851Z,40.17
2019-03-20T23:36:49.624Z,41.07
2019-03-20T23:39:17.441Z,43.80
2019-03-20T23:41:45.209Z,38.47
2019-03-20T23:44:12.977Z,40.17
2019-03-20T23:46:40.840Z,42.10
2019-03-20T23:49:08.599Z,48.60
2019-03-20T23:51:36.472Z,47.30
2019-03-20T23:54:04.228Z,43.47
2019-03-20T23:56:32.055Z,41.87
2019-03-20T23:58:59.862Z,44.13
